sensor_id;sensor_type;location;lat;lon;timestamp;pressure;altitude;pressure_sealevel;temperature;humidity
21433;BME280;18592;49.708;10.900;2023-07-31T00:01:38;98535.66;;;21.57;43.63
21433;BME280;18592;49.708;10.900;2023-07-31T00:03:38;98535.16;;;21.55;43.73
21433;BME280;18592;49.708;10.900;2023-07-31T00:05:40;98531.88;;;21.53;43.74
21433;BME280;18592;49.708;10.900;2023-07-31T00:07:40;98533.03;;;21.52;44.10
21433;BME280;18592;49.708;10.900;2023-07-31T00:09:41;98531.88;;;21.53;44.10
21433;BME280;18592;49.708;10.900;2023-07-31T00:11:41;98525.00;;;21.50;44.12
21433;BME280;18592;49.708;10.900;2023-07-31T00:13:42;98527.00;;;21.50;43.90
21433;BME280;18592;49.708;10.900;2023-07-31T00:15:42;98528.13;;;21.49;44.13
21433;BME280;18592;49.708;10.900;2023-07-31T00:17:42;98524.53;;;21.48;44.21
21433;BME280;18592;49.708;10.900;2023-07-31T00:19:43;98523.69;;;21.48;43.96
21433;BME280;18592;49.708;10.900;2023-07-31T00:21:44;98530.91;;;21.49;43.99
21433;BME280;18592;49.708;10.900;2023-07-31T00:23:44;98523.69;;;21.48;43.99
21433;BME280;18592;49.708;10.900;2023-07-31T00:26:00;98525.69;;;21.47;44.37
21433;BME280;18592;49.708;10.900;2023-07-31T00:28:08;98526.81;;;21.46;44.43
21433;BME280;18592;49.708;10.900;2023-07-31T00:30:09;98525.69;;;21.47;44.20
21433;BME280;18592;49.708;10.900;2023-07-31T00:32:09;98529.59;;;21.46;44.30
21433;BME280;18592;49.708;10.900;2023-07-31T00:34:11;98530.72;;;21.45;44.06
21433;BME280;18592;49.708;10.900;2023-07-31T00:36:20;98525.16;;;21.45;44.44
21433;BME280;18592;49.708;10.900;2023-07-31T00:38:20;98518.81;;;21.45;44.49
21433;BME280;18592;49.708;10.900;2023-07-31T00:40:21;98517.19;;;21.44;44.44
21433;BME280;18592;49.708;10.900;2023-07-31T00:42:21;98520.78;;;21.44;44.52
21433;BME280;18592;49.708;10.900;2023-07-31T00:44:23;98525.00;;;21.42;44.46
21433;BME280;18592;49.708;10.900;2023-07-31T00:46:24;98522.22;;;21.42;44.63
21433;BME280;18592;49.708;10.900;2023-07-31T00:48:24;98518.31;;;21.43;44.57
21433;BME280;18592;49.708;10.900;2023-07-31T00:50:25;98519.47;;;21.42;44.52
21433;BME280;18592;49.708;10.900;2023-07-31T00:52:27;98524.53;;;21.40;44.67
21433;BME280;18592;49.708;10.900;2023-07-31T00:54:27;98525.31;;;21.40;44.55
21433;BME280;18592;49.708;10.900;2023-07-31T00:56:28;98517.81;;;21.41;44.54
21433;BME280;18592;49.708;10.900;2023-07-31T00:58:28;98520.09;;;21.39;44.67
21433;BME280;18592;49.708;10.900;2023-07-31T01:00:29;98521.75;;;21.40;44.84
21433;BME280;18592;49.708;10.900;2023-07-31T01:02:30;98516.19;;;21.40;44.72
21433;BME280;18592;49.708;10.900;2023-07-31T01:04:31;98518.97;;;21.40;44.60
21433;BME280;18592;49.708;10.900;2023-07-31T01:11:27;98511.59;;;21.35;44.89
21433;BME280;18592;49.708;10.900;2023-07-31T01:13:28;98511.09;;;21.33;45.37
21433;BME280;18592;49.708;10.900;2023-07-31T01:15:29;98507.22;;;21.34;44.80
21433;BME280;18592;49.708;10.900;2023-07-31T01:17:29;98508.66;;;21.32;45.11
21433;BME280;18592;49.708;10.900;2023-07-31T01:19:31;98512.25;;;21.32;44.89
21433;BME280;18592;49.708;10.900;2023-07-31T01:26:21;98510.13;;;21.29;44.96
21433;BME280;18592;49.708;10.900;2023-07-31T01:30:48;98510.94;;;21.30;44.93
21433;BME280;18592;49.708;10.900;2023-07-31T01:32:57;98507.03;;;21.31;44.96
21433;BME280;18592;49.708;10.900;2023-07-31T01:34:59;98507.34;;;21.29;45.08
21433;BME280;18592;49.708;10.900;2023-07-31T01:37:01;98502.63;;;21.30;45.23
21433;BME280;18592;49.708;10.900;2023-07-31T01:39:02;98500.66;;;21.30;45.06
21433;BME280;18592;49.708;10.900;2023-07-31T01:41:04;98489.25;;;21.32;45.06
21433;BME280;18592;49.708;10.900;2023-07-31T01:43:06;98485.16;;;21.29;45.16
21433;BME280;18592;49.708;10.900;2023-07-31T01:45:07;98482.88;;;21.31;45.14
21433;BME280;18592;49.708;10.900;2023-07-31T01:47:07;98474.38;;;21.28;45.30
21433;BME280;18592;49.708;10.900;2023-07-31T01:49:07;98483.22;;;21.30;45.03
21433;BME280;18592;49.708;10.900;2023-07-31T01:51:08;98480.13;;;21.31;45.19
21433;BME280;18592;49.708;10.900;2023-07-31T01:53:10;98477.69;;;21.30;45.17
21433;BME280;18592;49.708;10.900;2023-07-31T01:55:12;98468.19;;;21.31;45.36
21433;BME280;18592;49.708;10.900;2023-07-31T01:57:21;98474.38;;;21.28;45.31
21433;BME280;18592;49.708;10.900;2023-07-31T01:59:22;98467.22;;;21.27;45.45
21433;BME280;18592;49.708;10.900;2023-07-31T02:01:22;98464.75;;;21.25;45.33
21433;BME280;18592;49.708;10.900;2023-07-31T02:03:23;98460.03;;;21.26;45.31
21433;BME280;18592;49.708;10.900;2023-07-31T02:05:26;98456.78;;;21.24;45.71
21433;BME280;18592;49.708;10.900;2023-07-31T02:07:27;98453.66;;;21.25;45.36
21433;BME280;18592;49.708;10.900;2023-07-31T02:09:27;98446.16;;;21.26;45.51
21433;BME280;18592;49.708;10.900;2023-07-31T02:11:27;98448.13;;;21.25;45.44
21433;BME280;18592;49.708;10.900;2023-07-31T02:13:28;98444.56;;;21.25;45.57
21433;BME280;18592;49.708;10.900;2023-07-31T02:15:28;98439.00;;;21.25;45.56
21433;BME280;18592;49.708;10.900;2023-07-31T02:17:31;98446.03;;;21.22;45.64
21433;BME280;18592;49.708;10.900;2023-07-31T02:19:32;98442.56;;;21.25;45.39
21433;BME280;18592;49.708;10.900;2023-07-31T02:21:32;98447.47;;;21.28;45.16
21433;BME280;18592;49.708;10.900;2023-07-31T02:23:32;98439.50;;;21.27;45.68
21433;BME280;18592;49.708;10.900;2023-07-31T02:25:33;98439.66;;;21.22;45.84
21433;BME280;18592;49.708;10.900;2023-07-31T02:27:33;98434.41;;;21.20;45.83
21433;BME280;18592;49.708;10.900;2023-07-31T02:29:36;98434.75;;;21.19;45.71
21433;BME280;18592;49.708;10.900;2023-07-31T02:31:47;98433.09;;;21.18;45.65
21433;BME280;18592;49.708;10.900;2023-07-31T02:33:47;98438.97;;;21.16;45.87
21433;BME280;18592;49.708;10.900;2023-07-31T02:35:53;98440.44;;;21.14;45.81
21433;BME280;18592;49.708;10.900;2023-07-31T02:38:01;98428.53;;;21.13;46.16
21433;BME280;18592;49.708;10.900;2023-07-31T02:40:01;98439.31;;;21.15;46.22
21433;BME280;18592;49.708;10.900;2023-07-31T02:42:03;98436.22;;;21.16;46.08
21433;BME280;18592;49.708;10.900;2023-07-31T02:44:03;98432.59;;;21.16;46.03
21433;BME280;18592;49.708;10.900;2023-07-31T02:46:04;98430.31;;;21.18;46.15
21433;BME280;18592;49.708;10.900;2023-07-31T02:48:04;98440.28;;;21.19;46.06
21433;BME280;18592;49.708;10.900;2023-07-31T02:50:06;98436.38;;;21.20;46.34
21433;BME280;18592;49.708;10.900;2023-07-31T02:52:06;98435.56;;;21.19;45.72
21433;BME280;18592;49.708;10.900;2023-07-31T02:54:08;98430.84;;;21.20;45.81
21433;BME280;18592;49.708;10.900;2023-07-31T02:56:18;98430.16;;;21.23;45.78
21433;BME280;18592;49.708;10.900;2023-07-31T02:58:19;98434.59;;;21.24;46.01
21433;BME280;18592;49.708;10.900;2023-07-31T03:00:19;98438.50;;;21.23;46.02
21433;BME280;18592;49.708;10.900;2023-07-31T03:02:21;98430.16;;;21.23;45.77
21433;BME280;18592;49.708;10.900;2023-07-31T03:04:22;98431.47;;;21.25;46.17
21433;BME280;18592;49.708;10.900;2023-07-31T03:06:23;98425.16;;;21.25;46.13
21433;BME280;18592;49.708;10.900;2023-07-31T03:08:24;98427.41;;;21.23;46.04
21433;BME280;18592;49.708;10.900;2023-07-31T03:10:24;98422.38;;;21.25;46.00
21433;BME280;18592;49.708;10.900;2023-07-31T03:12:24;98418.78;;;21.24;46.03
21433;BME280;18592;49.708;10.900;2023-07-31T03:14:25;98416.81;;;21.25;45.85
21433;BME280;18592;49.708;10.900;2023-07-31T03:16:26;98422.03;;;21.26;46.03
21433;BME280;18592;49.708;10.900;2023-07-31T03:18:29;98419.25;;;21.26;45.74
21433;BME280;18592;49.708;10.900;2023-07-31T03:20:29;98423.34;;;21.29;45.95
21433;BME280;18592;49.708;10.900;2023-07-31T03:22:30;98418.94;;;21.28;45.79
21433;BME280;18592;49.708;10.900;2023-07-31T03:24:30;98424.66;;;21.31;46.08
21433;BME280;18592;49.708;10.900;2023-07-31T03:26:32;98412.75;;;21.31;45.63
21433;BME280;18592;49.708;10.900;2023-07-31T03:28:33;98412.09;;;21.34;45.61
21433;BME280;18592;49.708;10.900;2023-07-31T03:30:35;98403.78;;;21.34;45.66
21433;BME280;18592;49.708;10.900;2023-07-31T03:32:37;98412.59;;;21.36;45.97
21433;BME280;18592;49.708;10.900;2023-07-31T03:34:38;98412.59;;;21.36;46.07
21433;BME280;18592;49.708;10.900;2023-07-31T03:36:39;98412.91;;;21.34;45.95
21433;BME280;18592;49.708;10.900;2023-07-31T03:38:40;98416.00;;;21.33;45.72
21433;BME280;18592;49.708;10.900;2023-07-31T03:40:41;98408.97;;;21.35;46.07
21433;BME280;18592;49.708;10.900;2023-07-31T03:42:57;98407.03;;;21.36;45.83
21433;BME280;18592;49.708;10.900;2023-07-31T03:44:59;98409.81;;;21.36;45.81
21433;BME280;18592;49.708;10.900;2023-07-31T03:46:59;98411.75;;;21.35;45.72
21433;BME280;18592;49.708;10.900;2023-07-31T03:48:59;98411.75;;;21.35;45.83
21433;BME280;18592;49.708;10.900;2023-07-31T03:51:00;98406.22;;;21.35;45.77
21433;BME280;18592;49.708;10.900;2023-07-31T03:53:00;98411.44;;;21.37;45.64
21433;BME280;18592;49.708;10.900;2023-07-31T03:55:00;98413.88;;;21.38;45.58
21433;BME280;18592;49.708;10.900;2023-07-31T03:57:01;98413.06;;;21.38;45.85
21433;BME280;18592;49.708;10.900;2023-07-31T03:59:01;98399.53;;;21.36;45.86
21433;BME280;18592;49.708;10.900;2023-07-31T04:01:02;98403.13;;;21.37;45.57
21433;BME280;18592;49.708;10.900;2023-07-31T04:03:02;98401.19;;;21.37;45.37
21433;BME280;18592;49.708;10.900;2023-07-31T04:05:03;98400.38;;;21.37;45.95
21433;BME280;18592;49.708;10.900;2023-07-31T04:07:03;98405.91;;;21.37;45.70
21433;BME280;18592;49.708;10.900;2023-07-31T04:09:04;98415.06;;;21.37;45.76
21433;BME280;18592;49.708;10.900;2023-07-31T04:11:04;98409.81;;;21.36;45.55
21433;BME280;18592;49.708;10.900;2023-07-31T04:13:04;98403.44;;;21.35;45.62
21433;BME280;18592;49.708;10.900;2023-07-31T04:15:05;98407.84;;;21.36;45.91
21433;BME280;18592;49.708;10.900;2023-07-31T04:17:06;98409.50;;;21.37;45.62
21433;BME280;18592;49.708;10.900;2023-07-31T04:19:06;98403.63;;;21.39;45.48
21433;BME280;18592;49.708;10.900;2023-07-31T04:21:06;98404.75;;;21.38;45.46
21433;BME280;18592;49.708;10.900;2023-07-31T04:23:07;98399.19;;;21.38;45.94
21433;BME280;18592;49.708;10.900;2023-07-31T04:25:07;98400.03;;;21.38;45.85
21433;BME280;18592;49.708;10.900;2023-07-31T04:27:08;98405.25;;;21.40;45.87
21433;BME280;18592;49.708;10.900;2023-07-31T04:29:08;98399.72;;;21.40;45.49
21433;BME280;18592;49.708;10.900;2023-07-31T04:31:08;98404.75;;;21.38;45.58
21433;BME280;18592;49.708;10.900;2023-07-31T04:33:09;98402.78;;;21.38;45.92
21433;BME280;18592;49.708;10.900;2023-07-31T04:35:10;98407.53;;;21.38;45.53
21433;BME280;18592;49.708;10.900;2023-07-31T04:37:10;98404.75;;;21.38;45.73
21433;BME280;18592;49.708;10.900;2023-07-31T04:39:11;98390.09;;;21.37;45.82
21433;BME280;18592;49.708;10.900;2023-07-31T04:41:11;98393.34;;;21.39;45.57
21433;BME280;18592;49.708;10.900;2023-07-31T04:43:11;98393.00;;;21.41;45.85
21433;BME280;18592;49.708;10.900;2023-07-31T04:45:12;98393.50;;;21.43;45.75
21433;BME280;18592;49.708;10.900;2023-07-31T04:47:12;98396.59;;;21.41;45.84
21433;BME280;18592;49.708;10.900;2023-07-31T04:49:12;98393.84;;;21.41;45.55
21433;BME280;18592;49.708;10.900;2023-07-31T04:51:13;98404.09;;;21.41;45.60
21433;BME280;18592;49.708;10.900;2023-07-31T04:53:13;98391.06;;;21.41;45.63
21433;BME280;18592;49.708;10.900;2023-07-31T04:55:14;98398.25;;;21.42;45.65
21433;BME280;18592;49.708;10.900;2023-07-31T04:57:14;98396.25;;;21.43;45.47
21433;BME280;18592;49.708;10.900;2023-07-31T04:59:14;98402.31;;;21.45;45.81
21433;BME280;18592;49.708;10.900;2023-07-31T05:01:15;98397.25;;;21.47;45.52
21433;BME280;18592;49.708;10.900;2023-07-31T05:03:21;98409.50;;;21.46;45.89
21433;BME280;18592;49.708;10.900;2023-07-31T05:05:22;98398.56;;;21.49;45.84
21433;BME280;18592;49.708;10.900;2023-07-31T05:07:22;98404.78;;;21.55;45.57
21433;BME280;18592;49.708;10.900;2023-07-31T05:09:23;98401.50;;;21.62;45.46
21433;BME280;18592;49.708;10.900;2023-07-31T05:11:23;98407.72;;;21.67;45.27
21433;BME280;18592;49.708;10.900;2023-07-31T05:13:23;98408.19;;;21.69;45.31
21433;BME280;18592;49.708;10.900;2023-07-31T05:15:25;98403.47;;;21.70;45.70
21433;BME280;18592;49.708;10.900;2023-07-31T05:17:25;98407.84;;;21.71;45.41
21433;BME280;18592;49.708;10.900;2023-07-31T05:19:26;98404.78;;;21.72;45.44
21433;BME280;18592;49.708;10.900;2023-07-31T05:21:42;98409.16;;;21.73;45.71
21433;BME280;18592;49.708;10.900;2023-07-31T05:23:42;98413.56;;;21.74;45.64
21433;BME280;18592;49.708;10.900;2023-07-31T05:25:42;98404.44;;;21.74;45.65
21433;BME280;18592;49.708;10.900;2023-07-31T05:27:43;98397.41;;;21.76;45.82
21433;BME280;18592;49.708;10.900;2023-07-31T05:29:43;98397.88;;;21.78;45.92
21433;BME280;18592;49.708;10.900;2023-07-31T05:31:44;98397.09;;;21.78;45.39
21433;BME280;18592;49.708;10.900;2023-07-31T05:33:44;98395.94;;;21.79;45.70
21433;BME280;18592;49.708;10.900;2023-07-31T05:35:44;98403.94;;;21.80;45.81
21433;BME280;18592;49.708;10.900;2023-07-31T05:37:45;98404.44;;;21.82;45.71
21433;BME280;18592;49.708;10.900;2023-07-31T05:39:47;98401.66;;;21.82;45.47
21433;BME280;18592;49.708;10.900;2023-07-31T05:41:47;98405.25;;;21.83;45.76
21433;BME280;18592;49.708;10.900;2023-07-31T05:43:47;98406.03;;;21.83;45.69
21433;BME280;18592;49.708;10.900;2023-07-31T05:45:48;98402.66;;;21.86;45.76
21433;BME280;18592;49.708;10.900;2023-07-31T05:47:57;98394.00;;;21.88;45.77
21433;BME280;18592;49.708;10.900;2023-07-31T05:49:57;98397.59;;;21.88;45.65
21433;BME280;18592;49.708;10.900;2023-07-31T05:51:58;98390.56;;;21.91;45.82
21433;BME280;18592;49.708;10.900;2023-07-31T05:53:58;98392.19;;;21.92;46.02
21433;BME280;18592;49.708;10.900;2023-07-31T05:55:58;98389.25;;;21.97;45.87
21433;BME280;18592;49.708;10.900;2023-07-31T05:57:59;98385.81;;;22.00;45.74
21433;BME280;18592;49.708;10.900;2023-07-31T05:59:59;98395.13;;;22.04;46.10
21433;BME280;18592;49.708;10.900;2023-07-31T06:01:59;98390.88;;;22.06;46.10
21433;BME280;18592;49.708;10.900;2023-07-31T06:04:00;98390.22;;;22.09;45.99
21433;BME280;18592;49.708;10.900;2023-07-31T06:06:00;98383.66;;;22.14;46.08
21433;BME280;18592;49.708;10.900;2023-07-31T06:08:00;98385.78;;;22.17;45.95
21433;BME280;18592;49.708;10.900;2023-07-31T06:10:01;98391.50;;;22.21;46.06
21433;BME280;18592;49.708;10.900;2023-07-31T06:12:05;98392.81;;;22.23;45.90
21433;BME280;18592;49.708;10.900;2023-07-31T06:14:05;98395.72;;;22.27;46.03
21433;BME280;18592;49.708;10.900;2023-07-31T06:16:06;98391.97;;;22.31;46.19
21433;BME280;18592;49.708;10.900;2023-07-31T06:18:06;98382.94;;;22.34;46.00
21433;BME280;18592;49.708;10.900;2023-07-31T06:20:23;98397.00;;;22.38;46.05
21433;BME280;18592;49.708;10.900;2023-07-31T06:22:23;98386.34;;;22.40;46.19
21433;BME280;18592;49.708;10.900;2023-07-31T06:24:23;98394.38;;;22.41;45.92
21433;BME280;18592;49.708;10.900;2023-07-31T06:26:24;98393.22;;;22.42;45.89
21433;BME280;18592;49.708;10.900;2023-07-31T06:28:28;98396.47;;;22.44;45.96
21433;BME280;18592;49.708;10.900;2023-07-31T06:30:31;98397.28;;;22.45;45.88
21433;BME280;18592;49.708;10.900;2023-07-31T06:32:32;98387.81;;;22.46;46.06
21433;BME280;18592;49.708;10.900;2023-07-31T06:34:32;98395.81;;;22.47;45.83
21433;BME280;18592;49.708;10.900;2023-07-31T06:36:32;98389.13;;;22.48;46.08
21433;BME280;18592;49.708;10.900;2023-07-31T06:38:33;98393.03;;;22.47;45.94
21433;BME280;18592;49.708;10.900;2023-07-31T06:40:33;98395.97;;;22.51;45.93
21433;BME280;18592;49.708;10.900;2023-07-31T06:42:34;98390.53;;;22.54;45.78
21433;BME280;18592;49.708;10.900;2023-07-31T06:44:39;98385.81;;;22.55;45.94
21433;BME280;18592;49.708;10.900;2023-07-31T06:46:39;98396.75;;;22.60;45.86
21433;BME280;18592;49.708;10.900;2023-07-31T06:48:40;98388.41;;;22.60;46.01
21433;BME280;18592;49.708;10.900;2023-07-31T06:50:41;98392.50;;;22.62;46.03
21433;BME280;18592;49.708;10.900;2023-07-31T06:52:42;98390.22;;;22.64;46.03
21433;BME280;18592;49.708;10.900;2023-07-31T06:54:42;98393.16;;;22.68;46.15
21433;BME280;18592;49.708;10.900;2023-07-31T06:56:42;98388.88;;;22.70;46.04
21433;BME280;18592;49.708;10.900;2023-07-31T06:58:43;98391.00;;;22.73;45.84
21433;BME280;18592;49.708;10.900;2023-07-31T07:00:43;98382.78;;;22.77;45.93
21433;BME280;18592;49.708;10.900;2023-07-31T07:02:44;98389.31;;;22.81;45.99
21433;BME280;18592;49.708;10.900;2023-07-31T07:04:44;98390.28;;;22.85;46.11
21433;BME280;18592;49.708;10.900;2023-07-31T07:06:44;98395.16;;;22.88;46.19
21433;BME280;18592;49.708;10.900;2023-07-31T07:08:45;98401.69;;;22.92;46.04
21433;BME280;18592;49.708;10.900;2023-07-31T07:10:46;98389.56;;;22.97;46.00
21433;BME280;18592;49.708;10.900;2023-07-31T07:12:46;98390.53;;;23.01;46.19
21433;BME280;18592;49.708;10.900;2023-07-31T07:14:47;98387.38;;;23.02;45.95
21433;BME280;18592;49.708;10.900;2023-07-31T07:16:51;98393.47;;;23.04;45.93
21433;BME280;18592;49.708;10.900;2023-07-31T07:18:51;98401.91;;;23.08;45.90
21433;BME280;18592;49.708;10.900;2023-07-31T07:20:53;98401.59;;;23.09;45.93
21433;BME280;18592;49.708;10.900;2023-07-31T07:22:54;98403.22;;;23.10;45.87
21433;BME280;18592;49.708;10.900;2023-07-31T07:24:54;98405.69;;;23.12;45.32
21433;BME280;18592;49.708;10.900;2023-07-31T07:26:54;98400.91;;;23.12;45.81
21433;BME280;18592;49.708;10.900;2023-07-31T07:28:55;98400.59;;;23.14;45.91
21433;BME280;18592;49.708;10.900;2023-07-31T07:31:10;98400.25;;;23.15;45.88
21433;BME280;18592;49.708;10.900;2023-07-31T07:33:10;98392.72;;;23.16;45.98
21433;BME280;18592;49.708;10.900;2023-07-31T07:35:12;98397.94;;;23.17;45.84
21433;BME280;18592;49.708;10.900;2023-07-31T07:37:13;98400.03;;;23.20;45.72
21433;BME280;18592;49.708;10.900;2023-07-31T07:39:25;98391.69;;;23.20;45.82
21433;BME280;18592;49.708;10.900;2023-07-31T07:41:27;98392.50;;;23.21;45.78
21433;BME280;18592;49.708;10.900;2023-07-31T07:43:28;98395.44;;;23.24;45.87
21433;BME280;18592;49.708;10.900;2023-07-31T07:45:28;98387.56;;;23.26;45.92
21433;BME280;18592;49.708;10.900;2023-07-31T07:47:33;98393.59;;;23.28;45.77
21433;BME280;18592;49.708;10.900;2023-07-31T07:49:34;98392.13;;;23.31;45.68
21433;BME280;18592;49.708;10.900;2023-07-31T07:51:35;98385.88;;;23.34;45.80
21433;BME280;18592;49.708;10.900;2023-07-31T07:53:35;98386.38;;;23.36;45.80
21433;BME280;18592;49.708;10.900;2023-07-31T07:55:36;98390.94;;;23.41;45.89
21433;BME280;18592;49.708;10.900;2023-07-31T07:57:38;98390.25;;;23.44;45.57
21433;BME280;18592;49.708;10.900;2023-07-31T07:59:39;98377.31;;;23.48;46.01
21433;BME280;18592;49.708;10.900;2023-07-31T08:01:39;98385.09;;;23.54;46.07
21433;BME280;18592;49.708;10.900;2023-07-31T08:03:39;98392.44;;;23.59;46.05
21433;BME280;18592;49.708;10.900;2023-07-31T08:05:40;98387.13;;;23.66;46.13
21433;BME280;18592;49.708;10.900;2023-07-31T08:07:45;98375.78;;;23.71;46.20
21433;BME280;18592;49.708;10.900;2023-07-31T08:09:45;98370.81;;;23.76;46.34
21433;BME280;18592;49.708;10.900;2023-07-31T08:11:46;98369.56;;;23.86;46.36
21433;BME280;18592;49.708;10.900;2023-07-31T08:13:46;98364.84;;;23.98;46.15
21433;BME280;18592;49.708;10.900;2023-07-31T08:15:46;98370.34;;;24.07;46.06
21433;BME280;18592;49.708;10.900;2023-07-31T08:17:47;98372.94;;;24.12;46.31
21433;BME280;18592;49.708;10.900;2023-07-31T08:19:47;98356.47;;;24.19;46.21
21433;BME280;18592;49.708;10.900;2023-07-31T08:21:48;98363.94;;;24.27;46.44
21433;BME280;18592;49.708;10.900;2023-07-31T08:23:48;98360.56;;;24.34;45.99
21433;BME280;18592;49.708;10.900;2023-07-31T08:25:48;98356.03;;;24.41;46.16
21433;BME280;18592;49.708;10.900;2023-07-31T08:27:50;98353.53;;;24.48;45.93
21433;BME280;18592;49.708;10.900;2023-07-31T08:29:52;98345.84;;;24.57;46.36
21433;BME280;18592;49.708;10.900;2023-07-31T08:31:53;98356.53;;;24.68;46.46
21433;BME280;18592;49.708;10.900;2023-07-31T08:33:53;98349.38;;;24.79;46.33
21433;BME280;18592;49.708;10.900;2023-07-31T08:35:54;98348.56;;;24.90;46.59
21433;BME280;18592;49.708;10.900;2023-07-31T08:37:54;98352.13;;;25.03;46.80
21433;BME280;18592;49.708;10.900;2023-07-31T08:39:54;98343.06;;;25.18;46.98
21433;BME280;18592;49.708;10.900;2023-07-31T08:41:59;98340.72;;;25.32;47.20
21433;BME280;18592;49.708;10.900;2023-07-31T08:44:00;98334.03;;;25.49;47.16
21433;BME280;18592;49.708;10.900;2023-07-31T08:46:02;98344.91;;;25.66;46.74
21433;BME280;18592;49.708;10.900;2023-07-31T08:48:11;98342.19;;;25.81;47.04
21433;BME280;18592;49.708;10.900;2023-07-31T08:50:14;98341.41;;;25.97;46.99
21433;BME280;18592;49.708;10.900;2023-07-31T08:52:14;98333.44;;;26.11;46.92
21433;BME280;18592;49.708;10.900;2023-07-31T08:54:15;98328.59;;;26.23;47.03
21433;BME280;18592;49.708;10.900;2023-07-31T08:56:15;98338.88;;;26.35;47.00
21433;BME280;18592;49.708;10.900;2023-07-31T08:58:17;98334.38;;;26.46;46.56
21433;BME280;18592;49.708;10.900;2023-07-31T09:00:18;98331.84;;;26.57;46.77
21433;BME280;18592;49.708;10.900;2023-07-31T09:02:21;98342.84;;;26.65;46.04
21433;BME280;18592;49.708;10.900;2023-07-31T09:04:23;98333.03;;;26.71;45.84
21433;BME280;18592;49.708;10.900;2023-07-31T09:06:32;98336.38;;;26.77;45.79
21433;BME280;18592;49.708;10.900;2023-07-31T09:08:33;98335.28;;;26.81;45.20
21433;BME280;18592;49.708;10.900;2023-07-31T09:10:34;98328.94;;;26.84;45.05
21433;BME280;18592;49.708;10.900;2023-07-31T09:12:34;98324.63;;;26.87;45.04
21433;BME280;18592;49.708;10.900;2023-07-31T09:14:45;98336.72;;;26.91;44.78
21433;BME280;18592;49.708;10.900;2023-07-31T09:16:56;98326.78;;;26.93;44.40
21433;BME280;18592;49.708;10.900;2023-07-31T09:18:57;98330.56;;;27.01;44.98
21433;BME280;18592;49.708;10.900;2023-07-31T09:21:05;98326.66;;;27.05;44.96
21433;BME280;18592;49.708;10.900;2023-07-31T09:23:13;98327.56;;;27.09;44.53
21433;BME280;18592;49.708;10.900;2023-07-31T09:25:22;98328.88;;;27.16;45.01
21433;BME280;18592;49.708;10.900;2023-07-31T09:27:22;98330.25;;;27.22;44.66
21433;BME280;18592;49.708;10.900;2023-07-31T09:29:23;98335.19;;;27.28;44.77
21433;BME280;18592;49.708;10.900;2023-07-31T09:31:39;98333.63;;;27.31;44.21
21433;BME280;18592;49.708;10.900;2023-07-31T09:33:54;98322.16;;;27.36;44.55
21433;BME280;18592;49.708;10.900;2023-07-31T09:35:55;98317.91;;;27.42;44.46
21433;BME280;18592;49.708;10.900;2023-07-31T09:38:00;98315.66;;;27.47;43.94
21433;BME280;18592;49.708;10.900;2023-07-31T09:40:01;98321.31;;;27.51;44.16
21433;BME280;18592;49.708;10.900;2023-07-31T09:42:01;98305.41;;;27.55;44.01
21433;BME280;18592;49.708;10.900;2023-07-31T09:44:01;98313.84;;;27.58;44.23
21433;BME280;18592;49.708;10.900;2023-07-31T09:46:02;98314.75;;;27.62;43.84
21433;BME280;18592;49.708;10.900;2023-07-31T09:48:17;98307.13;;;27.63;43.83
21433;BME280;18592;49.708;10.900;2023-07-31T09:50:20;98306.78;;;27.64;43.30
21433;BME280;18592;49.708;10.900;2023-07-31T09:52:20;98298.31;;;27.61;43.09
21433;BME280;18592;49.708;10.900;2023-07-31T09:54:21;98299.94;;;27.62;42.91
21433;BME280;18592;49.708;10.900;2023-07-31T09:56:22;98302.31;;;27.60;43.02
21433;BME280;18592;49.708;10.900;2023-07-31T09:58:24;98304.28;;;27.59;42.96
21433;BME280;18592;49.708;10.900;2023-07-31T10:00:26;98300.59;;;27.55;42.82
21433;BME280;18592;49.708;10.900;2023-07-31T10:02:30;98291.75;;;27.53;42.75
21433;BME280;18592;49.708;10.900;2023-07-31T10:04:32;98287.69;;;27.51;43.04
21433;BME280;18592;49.708;10.900;2023-07-31T10:06:34;98289.63;;;27.47;42.96
21433;BME280;18592;49.708;10.900;2023-07-31T10:08:36;98286.81;;;27.47;42.90
21433;BME280;18592;49.708;10.900;2023-07-31T10:10:44;98274.00;;;27.46;43.02
21433;BME280;18592;49.708;10.900;2023-07-31T10:12:46;98269.19;;;27.46;43.04
21433;BME280;18592;49.708;10.900;2023-07-31T10:14:47;98271.63;;;27.48;43.37
21433;BME280;18592;49.708;10.900;2023-07-31T10:16:49;98268.09;;;27.51;43.13
21433;BME280;18592;49.708;10.900;2023-07-31T10:18:50;98261.03;;;27.57;43.35
21433;BME280;18592;49.708;10.900;2023-07-31T10:20:54;98253.56;;;27.64;43.88
21433;BME280;18592;49.708;10.900;2023-07-31T10:22:55;98255.38;;;27.76;43.74
21433;BME280;18592;49.708;10.900;2023-07-31T10:24:58;98254.03;;;27.89;43.92
21433;BME280;18592;49.708;10.900;2023-07-31T10:26:59;98261.56;;;28.04;44.28
21433;BME280;18592;49.708;10.900;2023-07-31T10:29:00;98253.03;;;28.20;44.06
21433;BME280;18592;49.708;10.900;2023-07-31T10:31:02;98250.09;;;28.36;44.14
21433;BME280;18592;49.708;10.900;2023-07-31T10:33:03;98249.13;;;28.51;44.09
21433;BME280;18592;49.708;10.900;2023-07-31T10:35:07;98251.44;;;28.68;44.39
21433;BME280;18592;49.708;10.900;2023-07-31T10:37:30;98244.84;;;28.83;44.54
21433;BME280;18592;49.708;10.900;2023-07-31T10:39:37;98245.50;;;28.99;44.08
21433;BME280;18592;49.708;10.900;2023-07-31T10:41:40;98225.59;;;29.11;44.14
21433;BME280;18592;49.708;10.900;2023-07-31T10:43:41;98231.28;;;29.18;43.68
21433;BME280;18592;49.708;10.900;2023-07-31T10:45:44;98228.19;;;29.23;42.88
21433;BME280;18592;49.708;10.900;2023-07-31T10:47:45;98224.22;;;29.28;42.57
21433;BME280;18592;49.708;10.900;2023-07-31T10:49:46;98222.66;;;29.30;42.28